createdAt,value
2023-01-13T00:01:57.712Z,3.96
2023-01-13T00:05:00.467Z,3.83
2023-01-13T00:08:04.964Z,3.96
2023-01-13T00:11:07.586Z,3.90
2023-01-13T00:14:09.977Z,3.94
2023-01-13T00:17:12.577Z,3.88
2023-01-13T00:20:15.231Z,3.80
2023-01-13T00:23:17.942Z,3.78
2023-01-13T00:26:26.184Z,3.70
2023-01-13T00:29:29.176Z,3.65
2023-01-13T00:32:31.782Z,3.69
2023-01-13T00:35:34.412Z,3.55
2023-01-13T00:38:37.785Z,3.55
2023-01-13T00:41:59.249Z,3.53
2023-01-13T00:45:02.137Z,3.52
2023-01-13T00:48:04.743Z,3.52
2023-01-13T00:51:11.078Z,3.53
2023-01-13T00:54:13.716Z,3.48
2023-01-13T00:57:16.172Z,3.45
2023-01-13T01:00:19.540Z,3.48
2023-01-13T01:03:21.921Z,3.38
2023-01-13T01:06:26.819Z,3.41
2023-01-13T01:09:32.777Z,3.37
2023-01-13T01:12:35.476Z,3.37
2023-01-13T01:15:41.669Z,3.42
2023-01-13T01:18:46.746Z,3.44
2023-01-13T01:21:49.046Z,3.39
2023-01-13T01:24:51.631Z,3.47
2023-01-13T01:27:54.275Z,3.45
2023-01-13T01:30:58.528Z,3.45
2023-01-13T01:34:01.359Z,3.55
2023-01-13T01:37:03.941Z,3.50
2023-01-13T01:40:09.116Z,3.44
2023-01-13T01:43:35.677Z,3.49
2023-01-13T01:46:40.441Z,3.43
2023-01-13T01:49:45.687Z,3.55
2023-01-13T01:52:54.464Z,3.58
2023-01-13T01:55:59.408Z,3.60
2023-01-13T01:59:02.058Z,3.57
2023-01-13T02:02:04.769Z,3.43
2023-01-13T02:05:07.850Z,3.36
2023-01-13T02:08:13.185Z,3.22
2023-01-13T02:11:51.709Z,3.26
2023-01-13T02:14:54.109Z,3.27
2023-01-13T02:18:11.991Z,3.27
2023-01-13T02:21:32.548Z,3.28
2023-01-13T02:25:01.387Z,3.35
2023-01-13T02:29:07.733Z,3.37
2023-01-13T02:32:26.110Z,3.33
2023-01-13T02:35:33.166Z,3.38
2023-01-13T02:38:49.070Z,3.36
2023-01-13T02:42:20.054Z,3.41
2023-01-13T02:45:29.075Z,3.52
2023-01-13T02:48:32.994Z,3.47
2023-01-13T02:51:38.651Z,3.46
2023-01-13T02:54:47.459Z,3.47
2023-01-13T02:57:51.324Z,3.43
2023-01-13T03:00:53.846Z,3.37
2023-01-13T03:03:56.517Z,3.26
2023-01-13T03:07:12.874Z,3.37
2023-01-13T03:10:34.133Z,3.27
2023-01-13T03:13:54.886Z,3.27
2023-01-13T03:17:09.587Z,3.22
2023-01-13T03:20:27.399Z,3.23
2023-01-13T03:24:05.687Z,3.24
2023-01-13T03:27:11.788Z,3.17
2023-01-13T03:30:29.727Z,3.14
2023-01-13T03:33:40.466Z,3.19
2023-01-13T03:36:46.765Z,3.20
2023-01-13T03:39:56.504Z,3.13
2023-01-13T03:43:42.584Z,3.14
2023-01-13T03:46:50.774Z,3.13
2023-01-13T03:49:55.966Z,3.12
2023-01-13T03:53:14.013Z,3.03
2023-01-13T03:56:30.075Z,3.13
2023-01-13T03:59:38.645Z,3.17
2023-01-13T04:02:52.892Z,3.18
2023-01-13T04:06:04.284Z,3.09
2023-01-13T04:09:18.126Z,3.00
2023-01-13T04:12:28.452Z,3.03
2023-01-13T04:15:57.381Z,2.99
2023-01-13T04:19:00.090Z,3.08
2023-01-13T04:22:02.549Z,3.06
2023-01-13T04:25:08.026Z,2.95
2023-01-13T04:28:11.202Z,3.01
2023-01-13T04:31:13.896Z,3.02
2023-01-13T04:34:16.309Z,3.03
2023-01-13T04:37:19.005Z,3.11
2023-01-13T04:40:21.489Z,2.99
2023-01-13T04:43:24.198Z,3.06
2023-01-13T04:46:26.713Z,3.13
2023-01-13T04:49:29.510Z,3.05
2023-01-13T04:52:31.864Z,3.18
2023-01-13T04:55:35.379Z,3.10
2023-01-13T04:58:37.756Z,3.01
2023-01-13T05:01:40.658Z,2.95
2023-01-13T05:04:43.111Z,3.07
2023-01-13T05:07:45.919Z,3.00
2023-01-13T05:10:48.249Z,3.03
2023-01-13T05:14:09.667Z,3.08
2023-01-13T05:17:24.130Z,3.13
2023-01-13T05:20:26.871Z,3.09
2023-01-13T05:23:47.875Z,3.05
2023-01-13T05:26:50.570Z,3.09
2023-01-13T05:29:53.772Z,3.10
2023-01-13T05:32:56.799Z,3.10
2023-01-13T05:36:02.789Z,3.04
2023-01-13T05:39:05.441Z,3.17
2023-01-13T05:42:26.687Z,3.07
2023-01-13T05:45:31.671Z,3.13
2023-01-13T05:48:42.544Z,3.12
2023-01-13T05:51:45.253Z,3.11
2023-01-13T05:54:47.621Z,3.14
2023-01-13T05:57:50.251Z,3.17
2023-01-13T06:00:53.298Z,3.17
2023-01-13T06:03:55.958Z,3.10
2023-01-13T06:06:58.257Z,3.22
2023-01-13T06:10:00.832Z,3.22
2023-01-13T06:13:04.167Z,3.20
2023-01-13T06:16:07.077Z,3.11
2023-01-13T06:19:13.493Z,3.15
2023-01-13T06:22:17.592Z,3.13
2023-01-13T06:25:26.585Z,3.11
2023-01-13T06:28:29.323Z,3.12
2023-01-13T06:31:35.595Z,2.99
2023-01-13T06:34:40.098Z,3.01
2023-01-13T06:37:45.029Z,3.04
2023-01-13T06:40:48.039Z,3.01
2023-01-13T06:43:50.405Z,3.01
2023-01-13T06:46:53.241Z,2.98
2023-01-13T06:49:55.732Z,3.00
2023-01-13T06:52:59.116Z,2.91
2023-01-13T06:56:01.598Z,3.08
2023-01-13T06:59:04.247Z,2.99
2023-01-13T07:02:06.833Z,3.05
2023-01-13T07:05:09.720Z,3.11
2023-01-13T07:08:12.377Z,3.12
2023-01-13T07:11:15.202Z,3.24
2023-01-13T07:14:36.470Z,3.27
2023-01-13T07:17:39.138Z,3.40
2023-01-13T07:20:41.499Z,3.33
2023-01-13T07:23:44.257Z,3.43
2023-01-13T07:26:46.625Z,3.37
2023-01-13T07:29:49.353Z,3.52
2023-01-13T07:32:51.729Z,3.47
2023-01-13T07:36:00.203Z,3.40
2023-01-13T07:39:03.023Z,3.44
2023-01-13T07:42:24.457Z,3.43
2023-01-13T07:45:26.936Z,3.52
2023-01-13T07:48:30.559Z,3.64
2023-01-13T07:51:37.460Z,3.87
2023-01-13T07:54:41.320Z,3.80
2023-01-13T07:57:43.800Z,3.80
2023-01-13T08:00:46.650Z,3.80
2023-01-13T08:03:49.425Z,3.70
2023-01-13T08:06:51.754Z,3.81
2023-01-13T08:09:54.408Z,3.80
2023-01-13T08:13:15.629Z,3.87
2023-01-13T08:16:18.387Z,3.79
2023-01-13T08:19:20.767Z,3.85
2023-01-13T08:22:23.396Z,3.73
2023-01-13T08:25:27.117Z,3.61
2023-01-13T08:28:30.131Z,3.53
2023-01-13T08:31:32.448Z,3.57
2023-01-13T08:34:36.231Z,3.60
2023-01-13T08:37:39.129Z,3.64
2023-01-13T08:40:41.862Z,3.50
2023-01-13T08:43:44.214Z,3.57
2023-01-13T08:46:47.022Z,3.73
2023-01-13T08:49:49.440Z,3.75
2023-01-13T08:52:52.063Z,3.78
2023-01-13T08:55:54.423Z,3.80
2023-01-13T08:59:00.909Z,3.81
2023-01-13T09:02:04.444Z,3.83
2023-01-13T09:05:08.287Z,3.67
2023-01-13T09:08:10.608Z,3.63
2023-01-13T09:11:52.691Z,3.68
2023-01-13T09:14:55.020Z,3.59
2023-01-13T09:17:57.732Z,3.67
2023-01-13T09:21:00.079Z,3.49
2023-01-13T09:24:02.771Z,3.53
2023-01-13T09:27:05.136Z,3.63
2023-01-13T09:30:08.943Z,3.61
2023-01-13T09:33:30.305Z,3.69
2023-01-13T09:36:33.045Z,3.56
2023-01-13T09:39:36.479Z,3.73
2023-01-13T09:43:04.864Z,3.94
2023-01-13T09:46:47.224Z,3.76
2023-01-13T09:49:50.701Z,3.52
2023-01-13T09:52:53.565Z,3.72
2023-01-13T09:55:56.616Z,3.52
2023-01-13T09:58:59.052Z,3.64
2023-01-13T10:02:22.346Z,3.50
2023-01-13T10:05:37.297Z,3.67
2023-01-13T10:08:42.632Z,3.60
2023-01-13T10:12:07.283Z,3.69
2023-01-13T10:15:19.911Z,3.79
2023-01-13T10:18:35.477Z,3.78
2023-01-13T10:21:52.571Z,3.94
2023-01-13T10:25:20.952Z,3.83
2023-01-13T10:28:25.183Z,3.88
2023-01-13T10:31:28.205Z,3.91
2023-01-13T10:34:30.649Z,3.89
2023-01-13T10:37:33.439Z,3.88
2023-01-13T10:40:35.808Z,3.93
2023-01-13T10:43:38.720Z,4.04
2023-01-13T10:46:53.538Z,3.97
2023-01-13T10:50:17.187Z,3.94
2023-01-13T10:53:31.016Z,3.84
2023-01-13T10:56:41.047Z,3.95
2023-01-13T10:59:54.957Z,3.87
2023-01-13T11:03:09.906Z,3.63
2023-01-13T11:06:30.349Z,3.67
2023-01-13T11:09:33.820Z,3.65
2023-01-13T11:13:08.721Z,3.73
2023-01-13T11:16:16.520Z,3.73
2023-01-13T11:19:22.755Z,3.72
2023-01-13T11:22:34.065Z,3.55
2023-01-13T11:25:46.880Z,3.73
2023-01-13T11:28:58.280Z,3.78
2023-01-13T11:32:29.621Z,3.91
2023-01-13T11:35:36.081Z,3.71
2023-01-13T11:38:53.899Z,3.78
2023-01-13T11:42:20.487Z,3.61
2023-01-13T11:45:42.631Z,3.89
2023-01-13T11:48:45.471Z,3.77
2023-01-13T11:52:15.090Z,3.84
2023-01-13T11:55:54.462Z,3.90
2023-01-13T11:59:11.927Z,3.84
2023-01-13T12:02:39.211Z,3.95
2023-01-13T12:05:59.711Z,3.88
2023-01-13T12:09:48.805Z,3.87
2023-01-13T12:13:03.393Z,3.94
2023-01-13T12:16:26.155Z,3.80
2023-01-13T12:19:32.475Z,3.81
2023-01-13T12:22:37.286Z,3.94
2023-01-13T12:25:47.205Z,4.06
2023-01-13T12:28:56.336Z,3.86
2023-01-13T12:32:01.821Z,3.90
2023-01-13T12:35:34.577Z,3.89
2023-01-13T12:38:44.886Z,3.90
2023-01-13T12:42:14.347Z,4.03
2023-01-13T12:45:30.370Z,3.93
2023-01-13T12:48:59.511Z,4.07
2023-01-13T12:52:13.988Z,4.03
2023-01-13T12:55:20.117Z,4.03
2023-01-13T12:58:28.653Z,3.93
2023-01-13T13:01:36.043Z,4.13
2023-01-13T13:04:43.403Z,4.13
2023-01-13T13:07:49.762Z,4.17
2023-01-13T13:11:37.928Z,4.17
2023-01-13T13:14:40.276Z,4.31
2023-01-13T13:17:44.841Z,4.35
2023-01-13T13:21:13.742Z,4.30
2023-01-13T13:24:18.215Z,4.27
2023-01-13T13:27:40.949Z,4.36
2023-01-13T13:30:57.961Z,4.47
2023-01-13T13:34:16.279Z,4.53
2023-01-13T13:37:55.844Z,4.53
2023-01-13T13:41:17.733Z,4.59
2023-01-13T13:44:49.441Z,4.65
2023-01-13T13:47:51.810Z,4.54
2023-01-13T13:51:02.145Z,4.65
2023-01-13T13:54:05.046Z,4.62
2023-01-13T13:57:32.292Z,4.55
2023-01-13T14:00:38.061Z,4.69
2023-01-13T14:03:40.812Z,4.71
2023-01-13T14:06:51.838Z,4.66
2023-01-13T14:09:56.436Z,4.64
2023-01-13T14:13:00.754Z,4.69
2023-01-13T14:16:11.392Z,4.81
2023-01-13T14:19:28.758Z,4.81
2023-01-13T14:22:32.732Z,4.85
2023-01-13T14:25:49.196Z,4.84
2023-01-13T14:28:52.769Z,4.85
2023-01-13T14:31:55.319Z,4.94
2023-01-13T14:34:57.996Z,5.02
2023-01-13T14:38:04.395Z,5.01
2023-01-13T14:41:25.851Z,5.05
2023-01-13T14:44:31.753Z,5.04
2023-01-13T14:47:34.557Z,5.14
2023-01-13T14:50:37.147Z,5.13
2023-01-13T14:53:46.978Z,5.13
2023-01-13T14:56:50.599Z,5.19
2023-01-13T15:00:14.059Z,5.18
2023-01-13T15:03:21.454Z,5.13
2023-01-13T15:06:26.111Z,5.19
2023-01-13T15:09:36.535Z,5.23
2023-01-13T15:12:40.806Z,5.20
2023-01-13T15:15:43.185Z,5.10
2023-01-13T15:18:46.087Z,5.12
2023-01-13T15:21:48.536Z,5.07
2023-01-13T15:24:51.190Z,5.10
2023-01-13T15:27:53.805Z,5.04
2023-01-13T15:31:00.720Z,5.16
2023-01-13T15:34:03.229Z,5.17
2023-01-13T15:37:05.950Z,5.14
2023-01-13T15:40:18.236Z,5.10
2023-01-13T15:43:42.558Z,5.04
2023-01-13T15:46:45.313Z,5.12
2023-01-13T15:49:48.095Z,5.07
2023-01-13T15:52:50.492Z,5.09
2023-01-13T15:55:56.535Z,4.99
2023-01-13T15:58:59.122Z,5.10
2023-01-13T16:02:01.796Z,5.00
2023-01-13T16:05:05.606Z,5.10
2023-01-13T16:08:19.276Z,5.14
2023-01-13T16:11:21.891Z,5.15
2023-01-13T16:14:24.226Z,5.15
2023-01-13T16:17:30.220Z,5.09
2023-01-13T16:20:32.624Z,5.08
2023-01-13T16:23:35.234Z,5.05
2023-01-13T16:26:38.953Z,5.16
2023-01-13T16:29:42.290Z,5.06
2023-01-13T16:32:44.627Z,5.11
2023-01-13T16:36:10.388Z,5.13
2023-01-13T16:39:21.857Z,5.11
2023-01-13T16:42:24.547Z,5.01
2023-01-13T16:45:27.592Z,5.11
2023-01-13T16:48:30.255Z,5.04
2023-01-13T16:51:33.737Z,5.17
2023-01-13T16:54:36.808Z,5.14
2023-01-13T16:57:39.246Z,5.10
2023-01-13T17:00:42.007Z,5.21
2023-01-13T17:03:44.554Z,5.22
2023-01-13T17:07:08.380Z,5.21
2023-01-13T17:10:20.264Z,5.25
2023-01-13T17:13:26.605Z,5.23
2023-01-13T17:16:28.971Z,5.20
2023-01-13T17:19:31.685Z,5.23
2023-01-13T17:22:34.027Z,5.17
2023-01-13T17:25:36.612Z,5.11
2023-01-13T17:28:38.963Z,5.17
2023-01-13T17:31:41.847Z,5.23
2023-01-13T17:34:45.249Z,5.21
2023-01-13T17:37:47.930Z,5.23
2023-01-13T17:40:50.308Z,5.31
2023-01-13T17:43:53.754Z,5.25
2023-01-13T17:46:56.825Z,5.25
2023-01-13T17:49:59.651Z,5.38
2023-01-13T17:53:01.989Z,5.32
2023-01-13T17:56:04.812Z,5.39
2023-01-13T17:59:10.084Z,5.46
2023-01-13T18:02:15.355Z,5.48
2023-01-13T18:05:18.103Z,5.50
2023-01-13T18:08:21.716Z,5.45
2023-01-13T18:11:25.031Z,5.46
2023-01-13T18:14:28.166Z,5.56
2023-01-13T18:17:30.913Z,5.52
2023-01-13T18:20:51.767Z,5.56
2023-01-13T18:24:13.041Z,5.60
2023-01-13T18:27:19.916Z,5.62
2023-01-13T18:30:22.693Z,5.55
2023-01-13T18:33:25.274Z,5.55
2023-01-13T18:36:28.042Z,5.48
2023-01-13T18:39:30.411Z,5.59
2023-01-13T18:42:51.507Z,5.59
2023-01-13T18:45:53.995Z,5.59
2023-01-13T18:48:56.869Z,5.64
2023-01-13T18:51:59.286Z,5.59
2023-01-13T18:55:01.987Z,5.53
2023-01-13T18:58:04.543Z,5.63
2023-01-13T19:01:07.301Z,5.64
2023-01-13T19:04:18.897Z,5.65
2023-01-13T19:07:28.407Z,5.58
2023-01-13T19:10:32.490Z,5.57
2023-01-13T19:13:36.307Z,5.54
2023-01-13T19:16:39.260Z,5.50
2023-01-13T19:19:53.795Z,5.46
2023-01-13T19:22:56.218Z,5.46
2023-01-13T19:26:03.822Z,5.53
2023-01-13T19:29:06.350Z,5.47
2023-01-13T19:32:09.679Z,5.51
2023-01-13T19:35:17.793Z,5.52
2023-01-13T19:38:20.845Z,5.57
2023-01-13T19:41:41.791Z,5.58
2023-01-13T19:45:02.993Z,5.56
2023-01-13T19:48:08.253Z,5.54
2023-01-13T19:51:14.361Z,5.63
2023-01-13T19:54:16.704Z,5.70
2023-01-13T19:57:20.327Z,5.69
2023-01-13T20:00:23.795Z,5.69
2023-01-13T20:03:31.006Z,5.72
2023-01-13T20:06:33.604Z,5.69
2023-01-13T20:09:36.442Z,5.62
2023-01-13T20:12:39.161Z,5.62
2023-01-13T20:15:42.692Z,5.64
2023-01-13T20:18:49.115Z,5.63
2023-01-13T20:21:51.711Z,5.65
2023-01-13T20:24:55.181Z,5.72
2023-01-13T20:27:58.785Z,5.74
2023-01-13T20:31:01.189Z,5.63
2023-01-13T20:34:03.939Z,5.63
2023-01-13T20:37:06.305Z,5.55
2023-01-13T20:40:12.984Z,5.61
2023-01-13T20:43:17.597Z,5.66
2023-01-13T20:46:22.588Z,5.68
2023-01-13T20:49:26.857Z,5.72
2023-01-13T20:52:29.565Z,5.66
2023-01-13T20:55:31.999Z,5.69
2023-01-13T20:58:34.837Z,5.67
2023-01-13T21:01:37.859Z,5.58
2023-01-13T21:04:40.833Z,5.61
2023-01-13T21:07:43.198Z,5.57
2023-01-13T21:10:45.953Z,5.65
2023-01-13T21:14:06.801Z,5.70
2023-01-13T21:17:29.431Z,5.65
2023-01-13T21:20:34.077Z,5.57
2023-01-13T21:23:36.852Z,5.56
2023-01-13T21:26:40.202Z,5.58
2023-01-13T21:29:44.616Z,5.56
2023-01-13T21:32:47.443Z,5.54
2023-01-13T21:35:50.209Z,5.47
2023-01-13T21:38:54.242Z,5.51
2023-01-13T21:42:15.628Z,5.46
2023-01-13T21:45:37.524Z,5.48
2023-01-13T21:48:40.702Z,5.32
2023-01-13T21:51:44.900Z,5.32
2023-01-13T21:55:06.764Z,5.31
2023-01-13T21:58:15.560Z,5.16
2023-01-13T22:01:19.256Z,5.15
2023-01-13T22:04:22.447Z,5.22
2023-01-13T22:07:25.745Z,5.29
2023-01-13T22:10:30.733Z,5.26
2023-01-13T22:13:51.862Z,5.32
2023-01-13T22:16:56.791Z,5.37
2023-01-13T22:19:59.999Z,5.52
2023-01-13T22:23:03.007Z,5.55
2023-01-13T22:26:06.977Z,5.55
2023-01-13T22:29:09.810Z,5.57
2023-01-13T22:32:12.417Z,5.52
2023-01-13T22:35:16.128Z,5.48
2023-01-13T22:38:18.472Z,5.46
2023-01-13T22:41:21.187Z,5.42
2023-01-13T22:44:23.802Z,5.52
2023-01-13T22:47:26.415Z,5.55
2023-01-13T22:50:28.826Z,5.58
2023-01-13T22:53:31.460Z,5.51
2023-01-13T22:56:34.027Z,5.54
2023-01-13T22:59:36.784Z,5.57
2023-01-13T23:02:39.138Z,5.51
2023-01-13T23:05:42.035Z,5.50
2023-01-13T23:08:45.543Z,5.56
2023-01-13T23:11:48.334Z,5.56
2023-01-13T23:14:50.744Z,5.53
2023-01-13T23:17:53.477Z,5.49
2023-01-13T23:20:55.935Z,5.51
2023-01-13T23:24:00.461Z,5.46
2023-01-13T23:27:02.931Z,5.49
2023-01-13T23:30:07.661Z,5.51
2023-01-13T23:33:10.052Z,5.50
2023-01-13T23:36:24.125Z,5.52
2023-01-13T23:39:26.942Z,5.52
2023-01-13T23:42:29.601Z,5.57
2023-01-13T23:45:32.502Z,5.53
2023-01-13T23:48:36.121Z,5.62
2023-01-13T23:51:38.517Z,5.60
2023-01-13T23:54:41.135Z,5.63
2023-01-13T23:57:43.475Z,5.63
